createdAt,value
2022-11-24T07:45:13.807Z,96929.88
2022-11-24T07:47:59.112Z,96918.97
2022-11-24T07:50:44.029Z,96925.50
2022-11-24T07:53:28.925Z,96917.47
2022-11-24T07:56:13.922Z,96926.75
2022-11-24T07:58:58.857Z,96927.03
2022-11-24T08:01:43.886Z,96950.38
2022-11-24T08:04:29.372Z,96927.00
2022-11-24T08:07:14.852Z,96920.00
2022-11-24T08:10:00.060Z,96919.44
2022-11-24T08:12:45.287Z,96928.44
2022-11-24T08:15:30.254Z,96927.25
2022-11-24T08:18:15.154Z,96928.16
2022-11-24T08:21:00.424Z,96927.13
2022-11-24T08:23:45.508Z,96934.66
2022-11-24T08:26:30.503Z,96933.81
2022-11-24T08:29:15.398Z,96945.44
2022-11-24T08:32:00.267Z,96931.72
2022-11-24T08:34:45.946Z,96942.19
2022-11-24T08:37:30.952Z,96953.38
2022-11-24T08:40:16.469Z,96959.72
2022-11-24T08:43:01.391Z,96974.09
2022-11-24T08:45:46.593Z,96971.31
2022-11-24T08:48:31.844Z,96977.34
2022-11-24T08:51:16.995Z,96981.75
2022-11-24T08:54:02.381Z,96978.16
2022-11-24T08:56:47.335Z,96981.09
2022-11-24T15:49:49.185Z,96828.75
2022-11-24T15:52:34.028Z,96840.38
2022-11-24T15:55:19.150Z,96826.50
2022-11-24T15:58:03.962Z,96838.72
2022-11-24T16:00:48.968Z,96834.94
2022-11-24T16:03:49.534Z,96828.44
2022-11-24T16:06:35.008Z,96830.06
2022-11-24T16:09:20.081Z,96839.75
2022-11-24T16:12:05.491Z,96837.59
2022-11-24T16:14:50.449Z,96837.75
2022-11-24T16:17:35.306Z,96841.38
2022-11-24T16:20:20.347Z,96839.09
2022-11-24T16:23:05.246Z,96827.47
2022-11-24T16:25:50.320Z,96824.16
2022-11-24T16:28:35.193Z,96825.56
2022-11-24T16:31:20.082Z,96822.91
2022-11-24T16:34:05.046Z,96830.13
2022-11-24T16:36:50.007Z,96833.38
2022-11-24T16:39:34.985Z,96838.25
2022-11-24T16:42:19.858Z,96840.69
2022-11-24T16:45:04.820Z,96841.34
2022-11-24T16:47:49.764Z,96833.56
2022-11-24T16:50:34.684Z,96841.50
2022-11-24T16:53:19.469Z,96834.94
2022-11-24T16:56:04.289Z,96837.38
2022-11-24T16:58:49.196Z,96835.22
2022-11-24T17:01:34.149Z,96830.19
2022-11-24T17:04:19.624Z,96826.41
2022-11-24T17:07:04.561Z,96809.03
2022-11-24T17:09:49.699Z,96816.69
2022-11-24T17:12:35.171Z,96820.63
2022-11-24T17:15:42.785Z,96813.19
2022-11-24T17:18:26.012Z,96813.78
2022-11-24T17:21:10.962Z,96818.91
2022-11-24T17:23:56.240Z,96783.69
2022-11-24T17:26:44.748Z,96780.28
2022-11-24T17:29:34.265Z,96781.31
2022-11-24T17:32:19.915Z,96776.75
2022-11-24T17:35:05.520Z,96779.88
2022-11-24T17:37:51.150Z,96796.34
2022-11-24T17:40:36.470Z,96809.44
2022-11-24T17:43:21.304Z,96821.28
2022-11-24T17:46:06.188Z,96814.66
2022-11-24T17:48:51.410Z,96811.22
2022-11-24T17:51:36.754Z,96807.41
2022-11-24T17:54:45.418Z,96811.41
2022-11-24T17:57:26.926Z,96811.88
2022-11-24T18:00:11.934Z,96822.13
2022-11-24T18:02:56.890Z,96807.00
2022-11-24T18:05:41.694Z,96811.22
2022-11-24T18:08:26.565Z,96823.91
2022-11-24T18:11:11.743Z,96831.59
2022-11-24T18:14:00.592Z,96835.69
2022-11-24T18:16:46.446Z,96826.88
2022-11-24T18:19:31.744Z,96833.56
2022-11-24T18:22:16.693Z,96833.09
2022-11-24T18:25:01.976Z,96837.50
2022-11-24T18:27:47.358Z,96832.63
2022-11-24T18:30:32.740Z,96836.22
2022-11-24T18:33:17.918Z,96839.19
2022-11-24T18:36:03.436Z,96843.53
2022-11-24T18:38:48.785Z,96838.09
2022-11-24T18:41:33.659Z,96830.25
2022-11-24T18:44:18.714Z,96827.22
2022-11-24T18:47:03.562Z,96832.28
2022-11-24T18:49:48.704Z,96835.56
2022-11-24T18:52:34.053Z,96821.72
2022-11-24T18:55:18.872Z,96825.16
2022-11-24T18:58:03.639Z,96819.34
2022-11-24T19:00:48.530Z,96812.44
2022-11-24T19:03:33.530Z,96804.63
2022-11-24T19:06:18.590Z,96803.81
2022-11-24T19:09:03.559Z,96806.72
2022-11-24T19:11:48.903Z,96808.25
2022-11-24T19:14:34.004Z,96802.13
2022-11-24T19:17:19.265Z,96805.78
2022-11-24T19:20:04.265Z,96807.69
2022-11-24T19:22:49.081Z,96816.09
2022-11-24T19:25:33.995Z,96814.19
2022-11-24T19:28:19.005Z,96816.69
2022-11-24T19:31:03.916Z,96817.03
2022-11-24T19:33:48.812Z,96819.47
2022-11-24T19:36:33.832Z,96818.81
2022-11-24T19:39:18.852Z,96818.47
2022-11-24T19:42:03.668Z,96803.91
2022-11-24T19:44:53.059Z,96811.97
2022-11-24T19:47:41.561Z,96811.50
2022-11-24T19:50:26.555Z,96806.13
2022-11-24T19:53:11.398Z,96801.22
2022-11-24T19:55:56.921Z,96809.56
2022-11-24T19:58:42.280Z,96809.50
2022-11-24T20:01:27.414Z,96812.09
2022-11-24T20:04:12.656Z,96809.84
2022-11-24T20:06:57.772Z,96808.34
2022-11-24T20:09:43.317Z,96803.75
2022-11-24T20:12:28.789Z,96808.16
2022-11-24T20:15:14.310Z,96802.72
2022-11-24T20:17:59.214Z,96803.66
